sensor_id;sensor_type;location;lat;lon;timestamp;pressure;altitude;pressure_sealevel;temperature;humidity
3254;BME280;1639;42.804;23.342;2023-12-20T00:01:00;74970.66;;;-148.52;100.00
3254;BME280;1639;42.804;23.342;2023-12-20T00:03:25;74978.94;;;-148.52;100.00
3254;BME280;1639;42.804;23.342;2023-12-20T00:05:51;74970.66;;;-148.52;100.00
3254;BME280;1639;42.804;23.342;2023-12-20T00:08:16;74978.94;;;-148.52;100.00
3254;BME280;1639;42.804;23.342;2023-12-20T00:10:43;74985.16;;;-148.52;100.00
3254;BME280;1639;42.804;23.342;2023-12-20T00:13:08;74995.50;;;-148.52;100.00
3254;BME280;1639;42.804;23.342;2023-12-20T00:15:34;74997.56;;;-148.52;100.00
3254;BME280;1639;42.804;23.342;2023-12-20T00:18:00;74981.00;;;-148.52;100.00
3254;BME280;1639;42.804;23.342;2023-12-20T00:20:26;74962.38;;;-148.52;100.00
3254;BME280;1639;42.804;23.342;2023-12-20T00:22:52;74947.91;;;-148.52;100.00
3254;BME280;1639;42.804;23.342;2023-12-20T00:25:17;74933.41;;;-148.52;100.00
3254;BME280;1639;42.804;23.342;2023-12-20T00:27:43;74929.28;;;-148.52;100.00
3254;BME280;1639;42.804;23.342;2023-12-20T00:30:09;74931.34;;;-148.52;100.00
3254;BME280;1639;42.804;23.342;2023-12-20T00:32:35;74921.00;;;-148.52;100.00
3254;BME280;1639;42.804;23.342;2023-12-20T00:35:01;74925.16;;;-148.52;100.00
3254;BME280;1639;42.804;23.342;2023-12-20T00:37:26;74947.91;;;-148.52;100.00
3254;BME280;1639;42.804;23.342;2023-12-20T00:39:52;74966.53;;;-148.52;100.00
3254;BME280;1639;42.804;23.342;2023-12-20T00:42:17;74991.34;;;-148.52;100.00
3254;BME280;1639;42.804;23.342;2023-12-20T00:44:42;75009.97;;;-148.52;100.00
3254;BME280;1639;42.804;23.342;2023-12-20T00:47:08;75018.25;;;-148.52;100.00
3254;BME280;1639;42.804;23.342;2023-12-20T00:49:33;75036.88;;;-148.52;100.00
3254;BME280;1639;42.804;23.342;2023-12-20T00:51:58;75012.06;;;-148.52;100.00
3254;BME280;1639;42.804;23.342;2023-12-20T00:54:24;74997.56;;;-148.52;100.00
3254;BME280;1639;42.804;23.342;2023-12-20T00:56:49;74974.81;;;-148.52;100.00
3254;BME280;1639;42.804;23.342;2023-12-20T00:59:16;74978.94;;;-148.52;100.00
3254;BME280;1639;42.804;23.342;2023-12-20T01:01:41;74981.00;;;-148.52;100.00
3254;BME280;1639;42.804;23.342;2023-12-20T01:04:07;74993.44;;;-148.52;100.00
3254;BME280;1639;42.804;23.342;2023-12-20T01:06:32;74970.66;;;-148.52;100.00
3254;BME280;1639;42.804;23.342;2023-12-20T01:08:58;74976.88;;;-148.52;100.00
3254;BME280;1639;42.804;23.342;2023-12-20T01:11:23;74966.53;;;-148.52;100.00
3254;BME280;1639;42.804;23.342;2023-12-20T01:13:49;74947.91;;;-148.52;100.00
3254;BME280;1639;42.804;23.342;2023-12-20T01:16:14;74947.91;;;-148.52;100.00
3254;BME280;1639;42.804;23.342;2023-12-20T01:18:40;74937.56;;;-148.52;100.00
3254;BME280;1639;42.804;23.342;2023-12-20T01:21:05;74929.28;;;-148.52;100.00
3254;BME280;1639;42.804;23.342;2023-12-20T01:23:31;74927.22;;;-148.52;100.00
3254;BME280;1639;42.804;23.342;2023-12-20T01:25:57;74931.34;;;-148.52;100.00
3254;BME280;1639;42.804;23.342;2023-12-20T01:28:25;74933.41;;;-148.52;100.00
3254;BME280;1639;42.804;23.342;2023-12-20T01:30:50;74933.41;;;-148.52;100.00
3254;BME280;1639;42.804;23.342;2023-12-20T01:33:15;74935.50;;;-148.52;100.00
3254;BME280;1639;42.804;23.342;2023-12-20T01:35:41;74952.03;;;-148.52;100.00
3254;BME280;1639;42.804;23.342;2023-12-20T01:38:06;74941.69;;;-148.52;100.00
3254;BME280;1639;42.804;23.342;2023-12-20T01:40:32;74945.84;;;-148.52;100.00
3254;BME280;1639;42.804;23.342;2023-12-20T01:43:08;74962.38;;;-148.52;100.00
3254;BME280;1639;42.804;23.342;2023-12-20T01:45:34;74939.63;;;-148.52;100.00
3254;BME280;1639;42.804;23.342;2023-12-20T01:47:59;74931.34;;;-148.52;100.00
3254;BME280;1639;42.804;23.342;2023-12-20T01:50:27;74949.97;;;-148.52;100.00
3254;BME280;1639;42.804;23.342;2023-12-20T01:52:53;74925.16;;;-148.52;100.00
3254;BME280;1639;42.804;23.342;2023-12-20T01:55:21;74918.94;;;-148.52;100.00
3254;BME280;1639;42.804;23.342;2023-12-20T01:57:46;74912.72;;;-148.52;100.00
3254;BME280;1639;42.804;23.342;2023-12-20T02:00:13;74925.16;;;-148.52;100.00
3254;BME280;1639;42.804;23.342;2023-12-20T02:02:40;74916.88;;;-148.52;100.00
3254;BME280;1639;42.804;23.342;2023-12-20T02:05:06;74894.09;;;-148.52;100.00
3254;BME280;1639;42.804;23.342;2023-12-20T02:07:32;74875.47;;;-148.52;100.00
3254;BME280;1639;42.804;23.342;2023-12-20T02:09:59;74865.13;;;-148.52;100.00
3254;BME280;1639;42.804;23.342;2023-12-20T02:12:24;74850.66;;;-148.52;100.00
3254;BME280;1639;42.804;23.342;2023-12-20T02:14:49;74852.72;;;-148.52;100.00
3254;BME280;1639;42.804;23.342;2023-12-20T02:17:15;74858.94;;;-148.52;100.00
3254;BME280;1639;42.804;23.342;2023-12-20T02:19:41;74854.78;;;-148.52;100.00
3254;BME280;1639;42.804;23.342;2023-12-20T02:22:13;74848.59;;;-148.52;100.00
3254;BME280;1639;42.804;23.342;2023-12-20T02:24:39;74858.94;;;-148.52;100.00
3254;BME280;1639;42.804;23.342;2023-12-20T02:27:06;74848.59;;;-148.52;100.00
3254;BME280;1639;42.804;23.342;2023-12-20T02:29:35;74834.09;;;-148.52;100.00
3254;BME280;1639;42.804;23.342;2023-12-20T02:32:01;74829.97;;;-148.52;100.00
3254;BME280;1639;42.804;23.342;2023-12-20T02:34:28;74821.69;;;-148.52;100.00
3254;BME280;1639;42.804;23.342;2023-12-20T02:36:53;74813.41;;;-148.52;100.00
3254;BME280;1639;42.804;23.342;2023-12-20T02:39:19;74803.06;;;-148.52;100.00
3254;BME280;1639;42.804;23.342;2023-12-20T02:41:45;74803.06;;;-148.52;100.00
3254;BME280;1639;42.804;23.342;2023-12-20T02:44:10;74803.06;;;-148.52;100.00
3254;BME280;1639;42.804;23.342;2023-12-20T02:46:35;74805.13;;;-148.52;100.00
3254;BME280;1639;42.804;23.342;2023-12-20T02:49:01;74817.53;;;-148.52;100.00
3254;BME280;1639;42.804;23.342;2023-12-20T02:51:26;74807.19;;;-148.52;100.00
3254;BME280;1639;42.804;23.342;2023-12-20T02:53:52;74805.13;;;-148.52;100.00
3254;BME280;1639;42.804;23.342;2023-12-20T02:56:17;74805.13;;;-148.52;100.00
3254;BME280;1639;42.804;23.342;2023-12-20T02:58:42;74817.53;;;-148.52;100.00
3254;BME280;1639;42.804;23.342;2023-12-20T03:01:08;74829.97;;;-148.52;100.00
3254;BME280;1639;42.804;23.342;2023-12-20T03:03:33;74836.16;;;-148.52;100.00
3254;BME280;1639;42.804;23.342;2023-12-20T03:05:59;74829.97;;;-148.52;100.00
3254;BME280;1639;42.804;23.342;2023-12-20T03:08:25;74827.88;;;-148.52;100.00
3254;BME280;1639;42.804;23.342;2023-12-20T03:10:50;74815.47;;;-148.52;100.00
3254;BME280;1639;42.804;23.342;2023-12-20T03:13:15;74832.03;;;-148.52;100.00
3254;BME280;1639;42.804;23.342;2023-12-20T03:15:41;74819.63;;;-148.52;100.00
3254;BME280;1639;42.804;23.342;2023-12-20T03:18:06;74809.28;;;-148.52;100.00
3254;BME280;1639;42.804;23.342;2023-12-20T03:20:32;74794.78;;;-148.52;100.00
3254;BME280;1639;42.804;23.342;2023-12-20T03:23:00;74834.09;;;-148.52;100.00
3254;BME280;1639;42.804;23.342;2023-12-20T03:25:25;74836.16;;;-148.52;100.00
3254;BME280;1639;42.804;23.342;2023-12-20T03:27:50;74834.09;;;-148.52;100.00
3254;BME280;1639;42.804;23.342;2023-12-20T03:30:16;74858.94;;;-148.52;100.00
3254;BME280;1639;42.804;23.342;2023-12-20T03:32:41;74858.94;;;-148.52;100.00
3254;BME280;1639;42.804;23.342;2023-12-20T03:35:06;74852.72;;;-148.52;100.00
3254;BME280;1639;42.804;23.342;2023-12-20T03:37:32;74867.22;;;-148.52;100.00
3254;BME280;1639;42.804;23.342;2023-12-20T03:39:57;74854.78;;;-148.52;100.00
3254;BME280;1639;42.804;23.342;2023-12-20T03:42:23;74829.97;;;-148.52;100.00
3254;BME280;1639;42.804;23.342;2023-12-20T03:44:48;74825.81;;;-148.52;100.00
3254;BME280;1639;42.804;23.342;2023-12-20T03:47:13;74854.78;;;-148.52;100.00
3254;BME280;1639;42.804;23.342;2023-12-20T03:49:39;74871.34;;;-148.52;100.00
3254;BME280;1639;42.804;23.342;2023-12-20T03:52:05;74863.06;;;-148.52;100.00
3254;BME280;1639;42.804;23.342;2023-12-20T03:54:30;74844.44;;;-148.52;100.00
3254;BME280;1639;42.804;23.342;2023-12-20T03:56:55;74838.25;;;-148.52;100.00
3254;BME280;1639;42.804;23.342;2023-12-20T03:59:21;74817.53;;;-148.52;100.00
3254;BME280;1639;42.804;23.342;2023-12-20T04:01:46;74813.41;;;-148.52;100.00
3254;BME280;1639;42.804;23.342;2023-12-20T04:04:13;74815.47;;;-148.52;100.00
3254;BME280;1639;42.804;23.342;2023-12-20T04:06:38;74803.06;;;-148.52;100.00
3254;BME280;1639;42.804;23.342;2023-12-20T04:09:04;74801.00;;;-148.52;100.00
3254;BME280;1639;42.804;23.342;2023-12-20T04:11:29;74796.84;;;-148.52;100.00
3254;BME280;1639;42.804;23.342;2023-12-20T04:13:55;74823.75;;;-148.52;100.00
3254;BME280;1639;42.804;23.342;2023-12-20T04:16:20;74821.69;;;-148.52;100.00
3254;BME280;1639;42.804;23.342;2023-12-20T04:18:46;74832.03;;;-148.52;100.00
3254;BME280;1639;42.804;23.342;2023-12-20T04:21:11;74817.53;;;-148.52;100.00
3254;BME280;1639;42.804;23.342;2023-12-20T04:23:36;74834.09;;;-148.52;100.00
3254;BME280;1639;42.804;23.342;2023-12-20T04:26:02;74850.66;;;-148.52;100.00
3254;BME280;1639;42.804;23.342;2023-12-20T04:28:27;74844.44;;;-148.52;100.00
3254;BME280;1639;42.804;23.342;2023-12-20T04:30:55;74825.81;;;-148.52;100.00
3254;BME280;1639;42.804;23.342;2023-12-20T04:33:21;74838.25;;;-148.52;100.00
3254;BME280;1639;42.804;23.342;2023-12-20T04:35:47;74840.31;;;-148.52;100.00
3254;BME280;1639;42.804;23.342;2023-12-20T04:38:12;74832.03;;;-148.52;100.00
3254;BME280;1639;42.804;23.342;2023-12-20T04:40:37;74836.16;;;-148.52;100.00
3254;BME280;1639;42.804;23.342;2023-12-20T04:43:04;74834.09;;;-148.52;100.00
3254;BME280;1639;42.804;23.342;2023-12-20T04:45:29;74842.38;;;-148.52;100.00
3254;BME280;1639;42.804;23.342;2023-12-20T04:47:55;74858.94;;;-148.52;100.00
3254;BME280;1639;42.804;23.342;2023-12-20T04:50:20;74846.50;;;-148.52;100.00
3254;BME280;1639;42.804;23.342;2023-12-20T04:52:46;74858.94;;;-148.52;100.00
3254;BME280;1639;42.804;23.342;2023-12-20T04:55:12;74867.22;;;-148.52;100.00
3254;BME280;1639;42.804;23.342;2023-12-20T04:57:37;74865.13;;;-148.52;100.00
3254;BME280;1639;42.804;23.342;2023-12-20T05:00:03;74871.34;;;-148.52;100.00
3254;BME280;1639;42.804;23.342;2023-12-20T05:02:29;74863.06;;;-148.52;100.00
3254;BME280;1639;42.804;23.342;2023-12-20T05:04:55;74879.63;;;-148.52;100.00
3254;BME280;1639;42.804;23.342;2023-12-20T05:07:20;74867.22;;;-148.52;100.00
3254;BME280;1639;42.804;23.342;2023-12-20T05:09:46;74871.34;;;-148.52;100.00
3254;BME280;1639;42.804;23.342;2023-12-20T05:12:11;74854.78;;;-148.52;100.00
3254;BME280;1639;42.804;23.342;2023-12-20T05:14:37;74823.75;;;-148.52;100.00
3254;BME280;1639;42.804;23.342;2023-12-20T05:17:02;74817.53;;;-148.52;100.00
3254;BME280;1639;42.804;23.342;2023-12-20T05:19:28;74821.69;;;-148.52;100.00
3254;BME280;1639;42.804;23.342;2023-12-20T05:21:53;74832.03;;;-148.52;100.00
3254;BME280;1639;42.804;23.342;2023-12-20T05:24:19;74832.03;;;-148.52;100.00
3254;BME280;1639;42.804;23.342;2023-12-20T05:26:44;74863.06;;;-148.52;100.00
3254;BME280;1639;42.804;23.342;2023-12-20T05:29:09;74850.66;;;-148.52;100.00
3254;BME280;1639;42.804;23.342;2023-12-20T05:31:35;74825.81;;;-148.52;100.00
3254;BME280;1639;42.804;23.342;2023-12-20T05:34:00;74817.53;;;-148.52;100.00
3254;BME280;1639;42.804;23.342;2023-12-20T05:36:26;74825.81;;;-148.52;100.00
3254;BME280;1639;42.804;23.342;2023-12-20T05:38:51;74801.00;;;-148.52;100.00
3254;BME280;1639;42.804;23.342;2023-12-20T05:41:16;74817.53;;;-148.52;100.00
3254;BME280;1639;42.804;23.342;2023-12-20T05:43:42;74809.28;;;-148.52;100.00
3254;BME280;1639;42.804;23.342;2023-12-20T05:46:10;74798.91;;;-148.52;100.00
3254;BME280;1639;42.804;23.342;2023-12-20T05:48:35;74796.84;;;-148.52;100.00
3254;BME280;1639;42.804;23.342;2023-12-20T05:51:00;74801.00;;;-148.52;100.00
3254;BME280;1639;42.804;23.342;2023-12-20T05:53:26;74784.44;;;-148.52;100.00
3254;BME280;1639;42.804;23.342;2023-12-20T05:55:51;74774.09;;;-148.52;100.00
3254;BME280;1639;42.804;23.342;2023-12-20T05:58:16;74780.31;;;-148.52;100.00
3254;BME280;1639;42.804;23.342;2023-12-20T06:00:42;74776.16;;;-148.52;100.00
3254;BME280;1639;42.804;23.342;2023-12-20T06:03:07;74759.59;;;-148.52;100.00
3254;BME280;1639;42.804;23.342;2023-12-20T06:05:32;74751.34;;;-148.52;100.00
3254;BME280;1639;42.804;23.342;2023-12-20T06:07:58;74736.84;;;-148.52;100.00
3254;BME280;1639;42.804;23.342;2023-12-20T06:10:27;74730.63;;;-148.52;100.00
3254;BME280;1639;42.804;23.342;2023-12-20T06:12:52;74724.44;;;-148.52;100.00
3254;BME280;1639;42.804;23.342;2023-12-20T06:15:18;74707.88;;;-148.52;100.00
3254;BME280;1639;42.804;23.342;2023-12-20T06:17:43;74728.56;;;-148.52;100.00
3254;BME280;1639;42.804;23.342;2023-12-20T06:20:09;74724.44;;;-148.52;100.00
3254;BME280;1639;42.804;23.342;2023-12-20T06:22:35;74738.91;;;-148.52;100.00
3254;BME280;1639;42.804;23.342;2023-12-20T06:25:02;74763.75;;;-148.52;100.00
3254;BME280;1639;42.804;23.342;2023-12-20T06:27:28;74792.72;;;-148.52;100.00
3254;BME280;1639;42.804;23.342;2023-12-20T06:29:53;74782.38;;;-148.52;100.00
3254;BME280;1639;42.804;23.342;2023-12-20T06:32:19;74786.50;;;-148.52;100.00
3254;BME280;1639;42.804;23.342;2023-12-20T06:34:44;74801.00;;;-148.52;100.00
3254;BME280;1639;42.804;23.342;2023-12-20T06:37:10;74776.16;;;-148.52;100.00
3254;BME280;1639;42.804;23.342;2023-12-20T06:39:35;74811.34;;;-148.52;100.00
3254;BME280;1639;42.804;23.342;2023-12-20T06:42:01;74801.00;;;-148.52;100.00
3254;BME280;1639;42.804;23.342;2023-12-20T06:44:26;74788.56;;;-148.52;100.00
3254;BME280;1639;42.804;23.342;2023-12-20T06:46:52;74786.50;;;-148.52;100.00
3254;BME280;1639;42.804;23.342;2023-12-20T06:49:17;74811.34;;;-148.52;100.00
3254;BME280;1639;42.804;23.342;2023-12-20T06:51:43;74788.56;;;-148.52;100.00
3254;BME280;1639;42.804;23.342;2023-12-20T06:54:09;74786.50;;;-148.52;100.00
3254;BME280;1639;42.804;23.342;2023-12-20T06:56:34;74784.44;;;-148.52;100.00
3254;BME280;1639;42.804;23.342;2023-12-20T06:58:59;74772.03;;;-148.52;100.00
3254;BME280;1639;42.804;23.342;2023-12-20T07:01:25;74743.06;;;-148.52;100.00
3254;BME280;1639;42.804;23.342;2023-12-20T07:03:50;74755.47;;;-148.52;100.00
3254;BME280;1639;42.804;23.342;2023-12-20T07:06:16;74757.53;;;-148.52;100.00
3254;BME280;1639;42.804;23.342;2023-12-20T07:08:42;74747.19;;;-148.52;100.00
3254;BME280;1639;42.804;23.342;2023-12-20T07:11:07;74761.69;;;-148.52;100.00
3254;BME280;1639;42.804;23.342;2023-12-20T07:13:32;74736.84;;;-148.52;100.00
3254;BME280;1639;42.804;23.342;2023-12-20T07:15:58;74718.22;;;-148.52;100.00
3254;BME280;1639;42.804;23.342;2023-12-20T07:18:23;74672.69;;;-148.52;100.00
3254;BME280;1639;42.804;23.342;2023-12-20T07:20:49;74635.47;;;-148.52;100.00
3254;BME280;1639;42.804;23.342;2023-12-20T07:23:14;74658.22;;;-148.52;100.00
3254;BME280;1639;42.804;23.342;2023-12-20T07:25:39;74666.50;;;-148.52;100.00
3254;BME280;1639;42.804;23.342;2023-12-20T07:28:05;74660.28;;;-148.52;100.00
3254;BME280;1639;42.804;23.342;2023-12-20T07:30:31;74670.63;;;-148.52;100.00
3254;BME280;1639;42.804;23.342;2023-12-20T07:32:56;74664.44;;;-148.52;100.00
3254;BME280;1639;42.804;23.342;2023-12-20T07:35:23;74660.28;;;-148.52;100.00
3254;BME280;1639;42.804;23.342;2023-12-20T07:37:49;74660.28;;;-148.52;100.00
3254;BME280;1639;42.804;23.342;2023-12-20T07:40:14;74656.16;;;-148.52;100.00
3254;BME280;1639;42.804;23.342;2023-12-20T07:42:42;74647.88;;;-148.52;100.00
3254;BME280;1639;42.804;23.342;2023-12-20T07:45:07;74662.38;;;-148.52;100.00
3254;BME280;1639;42.804;23.342;2023-12-20T07:47:33;74687.19;;;-148.52;100.00
3254;BME280;1639;42.804;23.342;2023-12-20T07:49:58;74674.78;;;-148.52;100.00
3254;BME280;1639;42.804;23.342;2023-12-20T07:52:24;74647.88;;;-148.52;100.00
3254;BME280;1639;42.804;23.342;2023-12-20T07:54:49;74643.75;;;-148.52;100.00
3254;BME280;1639;42.804;23.342;2023-12-20T07:57:14;74645.81;;;-148.52;100.00
3254;BME280;1639;42.804;23.342;2023-12-20T07:59:40;74649.94;;;-148.52;100.00
3254;BME280;1639;42.804;23.342;2023-12-20T08:02:05;74639.59;;;-148.52;100.00
3254;BME280;1639;42.804;23.342;2023-12-20T08:04:31;74627.19;;;-148.52;100.00
3254;BME280;1639;42.804;23.342;2023-12-20T08:06:57;74616.84;;;-148.52;100.00
3254;BME280;1639;42.804;23.342;2023-12-20T08:09:23;74614.78;;;-148.52;100.00
3254;BME280;1639;42.804;23.342;2023-12-20T08:11:48;74604.44;;;-148.52;100.00
3254;BME280;1639;42.804;23.342;2023-12-20T08:14:14;74598.22;;;-148.52;100.00
3254;BME280;1639;42.804;23.342;2023-12-20T08:16:40;74577.53;;;-148.52;100.00
3254;BME280;1639;42.804;23.342;2023-12-20T08:19:05;74571.31;;;-148.52;100.00
3254;BME280;1639;42.804;23.342;2023-12-20T08:21:31;74556.84;;;-148.52;100.00
3254;BME280;1639;42.804;23.342;2023-12-20T08:23:56;74556.84;;;-148.52;100.00
3254;BME280;1639;42.804;23.342;2023-12-20T08:26:21;74567.19;;;-148.52;100.00
3254;BME280;1639;42.804;23.342;2023-12-20T08:28:49;74573.38;;;-148.52;100.00
3254;BME280;1639;42.804;23.342;2023-12-20T08:31:15;74598.22;;;-148.52;100.00
3254;BME280;1639;42.804;23.342;2023-12-20T08:33:44;74585.81;;;-148.52;100.00
3254;BME280;1639;42.804;23.342;2023-12-20T08:36:09;74565.13;;;-148.52;100.00
3254;BME280;1639;42.804;23.342;2023-12-20T08:38:35;74569.25;;;-148.52;100.00
3254;BME280;1639;42.804;23.342;2023-12-20T08:41:01;74560.97;;;-148.52;100.00
3254;BME280;1639;42.804;23.342;2023-12-20T08:43:28;74548.56;;;-148.52;100.00
3254;BME280;1639;42.804;23.342;2023-12-20T08:45:53;74548.56;;;-148.52;100.00
3254;BME280;1639;42.804;23.342;2023-12-20T08:48:19;74523.72;;;-148.52;100.00
3254;BME280;1639;42.804;23.342;2023-12-20T08:50:44;74552.69;;;-148.52;100.00
3254;BME280;1639;42.804;23.342;2023-12-20T08:53:10;74544.44;;;-148.52;100.00
3254;BME280;1639;42.804;23.342;2023-12-20T08:55:35;74529.94;;;-148.52;100.00
3254;BME280;1639;42.804;23.342;2023-12-20T08:58:00;74536.16;;;-148.52;100.00
3254;BME280;1639;42.804;23.342;2023-12-20T09:00:26;74548.56;;;-148.52;100.00
3254;BME280;1639;42.804;23.342;2023-12-20T09:02:53;74548.56;;;-148.52;100.00
3254;BME280;1639;42.804;23.342;2023-12-20T09:05:19;74546.50;;;-148.52;100.00
3254;BME280;1639;42.804;23.342;2023-12-20T09:07:45;74546.50;;;-148.52;100.00
3254;BME280;1639;42.804;23.342;2023-12-20T09:10:10;74507.19;;;-148.52;100.00
3254;BME280;1639;42.804;23.342;2023-12-20T09:12:35;74484.44;;;-148.52;100.00
3254;BME280;1639;42.804;23.342;2023-12-20T09:15:05;74503.03;;;-148.52;100.00
3254;BME280;1639;42.804;23.342;2023-12-20T09:17:30;74494.78;;;-148.52;100.00
3254;BME280;1639;42.804;23.342;2023-12-20T09:19:56;74492.69;;;-148.52;100.00
3254;BME280;1639;42.804;23.342;2023-12-20T09:22:21;74486.50;;;-148.52;100.00
3254;BME280;1639;42.804;23.342;2023-12-20T09:24:47;74472.00;;;-148.52;100.00
3254;BME280;1639;42.804;23.342;2023-12-20T09:27:13;74461.66;;;-148.52;100.00
3254;BME280;1639;42.804;23.342;2023-12-20T09:29:38;74451.31;;;-148.52;100.00
3254;BME280;1639;42.804;23.342;2023-12-20T09:32:03;74443.03;;;-148.52;100.00
3254;BME280;1639;42.804;23.342;2023-12-20T09:34:29;74416.16;;;-148.52;100.00
3254;BME280;1639;42.804;23.342;2023-12-20T09:36:55;74380.97;;;-148.52;100.00
3254;BME280;1639;42.804;23.342;2023-12-20T09:39:20;74366.50;;;-148.52;100.00
3254;BME280;1639;42.804;23.342;2023-12-20T09:42:03;74347.88;;;-148.52;100.00
3254;BME280;1639;42.804;23.342;2023-12-20T09:44:30;74331.31;;;-148.52;100.00
3254;BME280;1639;42.804;23.342;2023-12-20T09:46:57;74325.13;;;-148.52;100.00
3254;BME280;1639;42.804;23.342;2023-12-20T09:49:22;74333.38;;;-148.52;100.00
3254;BME280;1639;42.804;23.342;2023-12-20T09:51:50;74341.66;;;-148.52;100.00
3254;BME280;1639;42.804;23.342;2023-12-20T09:54:17;74343.72;;;-148.52;100.00
3254;BME280;1639;42.804;23.342;2023-12-20T09:56:44;74345.81;;;-148.52;100.00
3254;BME280;1639;42.804;23.342;2023-12-20T09:59:09;74314.78;;;-148.52;100.00
3254;BME280;1639;42.804;23.342;2023-12-20T10:01:35;74283.75;;;-148.52;100.00
3254;BME280;1639;42.804;23.342;2023-12-20T10:04:05;74258.91;;;-148.52;100.00
3254;BME280;1639;42.804;23.342;2023-12-20T10:06:41;74242.38;;;-148.52;100.00
3254;BME280;1639;42.804;23.342;2023-12-20T10:09:07;74242.38;;;-148.52;100.00
3254;BME280;1639;42.804;23.342;2023-12-20T10:11:32;74225.81;;;-148.52;100.00
3254;BME280;1639;42.804;23.342;2023-12-20T10:14:00;74242.38;;;-148.52;100.00
3254;BME280;1639;42.804;23.342;2023-12-20T10:16:26;74223.75;;;-148.52;100.00
3254;BME280;1639;42.804;23.342;2023-12-20T10:18:53;74209.25;;;-148.52;100.00
3254;BME280;1639;42.804;23.342;2023-12-20T10:21:18;74198.91;;;-148.52;100.00
3254;BME280;1639;42.804;23.342;2023-12-20T10:23:44;74209.25;;;-148.52;100.00
3254;BME280;1639;42.804;23.342;2023-12-20T10:26:10;74217.53;;;-148.52;100.00
3254;BME280;1639;42.804;23.342;2023-12-20T10:28:44;74217.53;;;-148.52;100.00
3254;BME280;1639;42.804;23.342;2023-12-20T10:31:09;74194.78;;;-148.52;100.00
3254;BME280;1639;42.804;23.342;2023-12-20T10:33:35;74172.03;;;-148.52;100.00
3254;BME280;1639;42.804;23.342;2023-12-20T10:36:00;74155.47;;;-148.52;100.00
3254;BME280;1639;42.804;23.342;2023-12-20T10:38:25;74149.25;;;-148.52;100.00
3254;BME280;1639;42.804;23.342;2023-12-20T10:40:57;74145.13;;;-148.52;100.00
3254;BME280;1639;42.804;23.342;2023-12-20T10:43:24;74138.91;;;-148.52;100.00
3254;BME280;1639;42.804;23.342;2023-12-20T10:45:51;74116.16;;;-148.52;100.00
3254;BME280;1639;42.804;23.342;2023-12-20T10:48:18;74091.34;;;-148.52;100.00
3254;BME280;1639;42.804;23.342;2023-12-20T10:50:44;74078.94;;;-148.52;100.00
3254;BME280;1639;42.804;23.342;2023-12-20T10:53:10;74064.44;;;-148.52;100.00
3254;BME280;1639;42.804;23.342;2023-12-20T10:55:37;74068.59;;;-148.52;100.00
3254;BME280;1639;42.804;23.342;2023-12-20T10:58:09;74072.72;;;-148.52;100.00
3254;BME280;1639;42.804;23.342;2023-12-20T11:00:40;74064.44;;;-148.52;100.00
3254;BME280;1639;42.804;23.342;2023-12-20T11:03:10;74083.06;;;-148.52;100.00
3254;BME280;1639;42.804;23.342;2023-12-20T11:05:49;74064.44;;;-148.52;100.00
3254;BME280;1639;42.804;23.342;2023-12-20T11:08:19;74066.50;;;-148.52;100.00
3254;BME280;1639;42.804;23.342;2023-12-20T11:10:56;74064.44;;;-148.52;100.00
3254;BME280;1639;42.804;23.342;2023-12-20T11:13:30;74064.44;;;-148.52;100.00
3254;BME280;1639;42.804;23.342;2023-12-20T11:15:57;74052.03;;;-148.52;100.00
3254;BME280;1639;42.804;23.342;2023-12-20T11:18:29;74035.47;;;-148.52;100.00
3254;BME280;1639;42.804;23.342;2023-12-20T11:20:54;74029.28;;;-148.52;100.00
3254;BME280;1639;42.804;23.342;2023-12-20T11:23:20;74035.47;;;-148.52;100.00
3254;BME280;1639;42.804;23.342;2023-12-20T11:25:52;74068.59;;;-148.52;100.00
3254;BME280;1639;42.804;23.342;2023-12-20T11:28:21;74078.94;;;-148.52;100.00
3254;BME280;1639;42.804;23.342;2023-12-20T11:33:16;74089.28;;;-148.52;100.00
3254;BME280;1639;42.804;23.342;2023-12-20T11:35:46;74085.13;;;-148.52;100.00
3254;BME280;1639;42.804;23.342;2023-12-20T11:38:13;74064.44;;;-148.52;100.00
3254;BME280;1639;42.804;23.342;2023-12-20T11:40:42;74049.97;;;-148.52;100.00
3254;BME280;1639;42.804;23.342;2023-12-20T11:43:09;74066.50;;;-148.52;100.00
3254;BME280;1639;42.804;23.342;2023-12-20T11:45:35;74064.44;;;-148.52;100.00
3254;BME280;1639;42.804;23.342;2023-12-20T11:48:01;74072.72;;;-148.52;100.00
3254;BME280;1639;42.804;23.342;2023-12-20T11:50:28;74054.09;;;-148.52;100.00
3254;BME280;1639;42.804;23.342;2023-12-20T11:52:55;74033.41;;;-148.52;100.00
3254;BME280;1639;42.804;23.342;2023-12-20T11:55:21;74016.88;;;-148.52;100.00
3254;BME280;1639;42.804;23.342;2023-12-20T11:57:47;74018.94;;;-148.52;100.00
3254;BME280;1639;42.804;23.342;2023-12-20T12:00:13;74033.41;;;-148.52;100.00
3254;BME280;1639;42.804;23.342;2023-12-20T12:02:39;74041.69;;;-148.52;100.00
3254;BME280;1639;42.804;23.342;2023-12-20T12:05:05;74025.13;;;-148.52;100.00
3254;BME280;1639;42.804;23.342;2023-12-20T12:07:31;74010.66;;;-148.52;100.00
3254;BME280;1639;42.804;23.342;2023-12-20T12:09:57;73996.16;;;-148.52;100.00
3254;BME280;1639;42.804;23.342;2023-12-20T12:12:22;74002.38;;;-148.52;100.00
3254;BME280;1639;42.804;23.342;2023-12-20T12:14:49;73996.16;;;-148.52;100.00
3254;BME280;1639;42.804;23.342;2023-12-20T12:17:15;73981.69;;;-148.52;100.00
3254;BME280;1639;42.804;23.342;2023-12-20T12:19:41;74014.78;;;-148.52;100.00
3254;BME280;1639;42.804;23.342;2023-12-20T12:22:12;73992.03;;;-148.52;100.00
3254;BME280;1639;42.804;23.342;2023-12-20T12:24:43;73971.34;;;-148.52;100.00
3254;BME280;1639;42.804;23.342;2023-12-20T12:27:09;73992.03;;;-148.52;100.00
3254;BME280;1639;42.804;23.342;2023-12-20T12:29:36;73983.75;;;-148.52;100.00
3254;BME280;1639;42.804;23.342;2023-12-20T12:32:06;73952.72;;;-148.52;100.00
3254;BME280;1639;42.804;23.342;2023-12-20T12:34:32;73940.31;;;-148.52;100.00
3254;BME280;1639;42.804;23.342;2023-12-20T12:36:58;73944.47;;;-148.52;100.00